sensor_id;sensor_type;location;lat;lon;timestamp;pressure;altitude;pressure_sealevel;temperature;humidity
18819;BME280;9537;45.594;9.294;2023-01-28T00:00:35;99652.84;;;1.89;67.15
18819;BME280;9537;45.594;9.294;2023-01-28T00:01:37;99660.91;;;1.86;67.79
18819;BME280;9537;45.594;9.294;2023-01-28T00:02:39;99663.50;;;1.86;67.92
18819;BME280;9537;45.594;9.294;2023-01-28T00:03:42;99659.81;;;1.89;67.48
18819;BME280;9537;45.594;9.294;2023-01-28T00:04:44;99653.69;;;1.90;67.52
18819;BME280;9537;45.594;9.294;2023-01-28T00:05:45;99653.69;;;1.90;67.92
18819;BME280;9537;45.594;9.294;2023-01-28T00:06:47;99650.47;;;1.97;67.30
18819;BME280;9537;45.594;9.294;2023-01-28T00:07:48;99650.03;;;2.03;67.42
18819;BME280;9537;45.594;9.294;2023-01-28T00:08:50;99640.91;;;1.98;67.28
18819;BME280;9537;45.594;9.294;2023-01-28T00:09:51;99652.38;;;1.95;67.91
18819;BME280;9537;45.594;9.294;2023-01-28T00:10:57;99650.59;;;1.96;67.47
18819;BME280;9537;45.594;9.294;2023-01-28T00:11:58;99648.72;;;1.87;67.42
18819;BME280;9537;45.594;9.294;2023-01-28T00:13:00;99640.91;;;1.87;67.48
18819;BME280;9537;45.594;9.294;2023-01-28T00:14:01;99639.94;;;1.88;68.27
18819;BME280;9537;45.594;9.294;2023-01-28T00:15:05;99648.22;;;1.82;67.86
18819;BME280;9537;45.594;9.294;2023-01-28T00:16:07;99640.66;;;1.78;67.83
18819;BME280;9537;45.594;9.294;2023-01-28T00:17:09;99645.84;;;1.78;68.56
18819;BME280;9537;45.594;9.294;2023-01-28T00:18:12;99645.13;;;1.76;68.58
18819;BME280;9537;45.594;9.294;2023-01-28T00:19:14;99644.91;;;1.79;68.45
18819;BME280;9537;45.594;9.294;2023-01-28T00:20:15;99650.72;;;1.72;68.31
18819;BME280;9537;45.594;9.294;2023-01-28T00:21:17;99656.38;;;1.77;67.77
18819;BME280;9537;45.594;9.294;2023-01-28T00:22:18;99651.78;;;1.80;68.00
18819;BME280;9537;45.594;9.294;2023-01-28T00:23:21;99642.28;;;1.79;68.86
18819;BME280;9537;45.594;9.294;2023-01-28T00:24:22;99642.28;;;1.79;68.53
18819;BME280;9537;45.594;9.294;2023-01-28T00:25:24;99652.72;;;1.79;68.19
18819;BME280;9537;45.594;9.294;2023-01-28T00:26:26;99648.31;;;1.80;68.43
18819;BME280;9537;45.594;9.294;2023-01-28T00:27:28;99648.81;;;1.85;68.72
18819;BME280;9537;45.594;9.294;2023-01-28T00:28:30;99641.59;;;1.89;68.66
18819;BME280;9537;45.594;9.294;2023-01-28T00:29:32;99647.16;;;1.84;68.51
18819;BME280;9537;45.594;9.294;2023-01-28T00:30:33;99649.03;;;1.82;68.53
18819;BME280;9537;45.594;9.294;2023-01-28T00:31:36;99646.34;;;1.84;68.64
18819;BME280;9537;45.594;9.294;2023-01-28T00:32:37;99650.69;;;1.83;68.21
18819;BME280;9537;45.594;9.294;2023-01-28T00:33:40;99651.19;;;1.88;67.90
18819;BME280;9537;45.594;9.294;2023-01-28T00:34:41;99654.41;;;1.92;67.97
18819;BME280;9537;45.594;9.294;2023-01-28T00:35:43;99645.63;;;1.93;67.96
18819;BME280;9537;45.594;9.294;2023-01-28T00:36:43;99643.50;;;1.98;67.42
18819;BME280;9537;45.594;9.294;2023-01-28T00:37:45;99648.34;;;2.02;67.53
18819;BME280;9537;45.594;9.294;2023-01-28T00:38:50;99653.56;;;2.02;67.86
18819;BME280;9537;45.594;9.294;2023-01-28T00:39:52;99652.25;;;1.97;67.34
18819;BME280;9537;45.594;9.294;2023-01-28T00:40:53;99647.28;;;1.94;67.88
18819;BME280;9537;45.594;9.294;2023-01-28T00:41:56;99650.94;;;2.02;67.90
18819;BME280;9537;45.594;9.294;2023-01-28T00:42:57;99650.59;;;1.96;67.67
18819;BME280;9537;45.594;9.294;2023-01-28T00:44:00;99650.13;;;1.91;68.05
18819;BME280;9537;45.594;9.294;2023-01-28T00:45:02;99651.56;;;1.84;68.73
18819;BME280;9537;45.594;9.294;2023-01-28T00:46:04;99649.88;;;1.83;68.10
18819;BME280;9537;45.594;9.294;2023-01-28T00:47:06;99660.41;;;1.81;68.88
18819;BME280;9537;45.594;9.294;2023-01-28T00:48:07;99657.81;;;1.81;68.71
18819;BME280;9537;45.594;9.294;2023-01-28T00:49:10;99660.19;;;1.84;68.19
18819;BME280;9537;45.594;9.294;2023-01-28T00:50:11;99666.72;;;1.90;68.54
18819;BME280;9537;45.594;9.294;2023-01-28T00:51:15;99660.44;;;1.92;68.48
18819;BME280;9537;45.594;9.294;2023-01-28T00:52:17;99653.53;;;1.91;68.67
18819;BME280;9537;45.594;9.294;2023-01-28T00:53:18;99654.84;;;1.86;68.88
18819;BME280;9537;45.594;9.294;2023-01-28T00:54:19;99652.84;;;1.78;68.70
18819;BME280;9537;45.594;9.294;2023-01-28T00:55:21;99656.75;;;1.72;68.86
18819;BME280;9537;45.594;9.294;2023-01-28T00:56:22;99654.81;;;1.74;69.00
18819;BME280;9537;45.594;9.294;2023-01-28T00:57:25;99659.59;;;1.69;68.93
18819;BME280;9537;45.594;9.294;2023-01-28T00:58:27;99657.91;;;1.68;69.21
18819;BME280;9537;45.594;9.294;2023-01-28T00:59:29;99658.38;;;1.73;69.03
18819;BME280;9537;45.594;9.294;2023-01-28T01:00:31;99654.97;;;1.73;69.24
18819;BME280;9537;45.594;9.294;2023-01-28T01:01:32;99656.84;;;1.71;69.19
18819;BME280;9537;45.594;9.294;2023-01-28T01:02:34;99660.41;;;1.70;69.47
18819;BME280;9537;45.594;9.294;2023-01-28T01:03:35;99659.22;;;1.74;69.45
18819;BME280;9537;45.594;9.294;2023-01-28T01:04:38;99653.44;;;1.82;68.62
18819;BME280;9537;45.594;9.294;2023-01-28T01:05:39;99659.47;;;1.82;68.17
18819;BME280;9537;45.594;9.294;2023-01-28T01:06:41;99654.97;;;1.84;68.87
18819;BME280;9537;45.594;9.294;2023-01-28T01:07:42;99656.63;;;1.85;68.73
18819;BME280;9537;45.594;9.294;2023-01-28T01:08:46;99658.41;;;1.85;68.56
18819;BME280;9537;45.594;9.294;2023-01-28T01:09:50;99657.44;;;1.86;69.05
18819;BME280;9537;45.594;9.294;2023-01-28T01:10:52;99660.66;;;1.89;68.72
18819;BME280;9537;45.594;9.294;2023-01-28T01:11:53;99658.41;;;1.85;68.39
18819;BME280;9537;45.594;9.294;2023-01-28T01:12:56;99660.28;;;1.83;69.17
18819;BME280;9537;45.594;9.294;2023-01-28T01:13:59;99659.84;;;1.77;68.79
18819;BME280;9537;45.594;9.294;2023-01-28T01:15:06;99664.91;;;1.79;68.99
18819;BME280;9537;45.594;9.294;2023-01-28T01:16:11;99665.88;;;1.78;68.85
18819;BME280;9537;45.594;9.294;2023-01-28T01:17:13;99669.28;;;1.78;68.88
18819;BME280;9537;45.594;9.294;2023-01-28T01:18:14;99676.50;;;1.75;68.95
18819;BME280;9537;45.594;9.294;2023-01-28T01:19:17;99674.97;;;1.72;68.68
18819;BME280;9537;45.594;9.294;2023-01-28T01:20:19;99667.50;;;1.68;69.09
18819;BME280;9537;45.594;9.294;2023-01-28T01:21:23;99669.38;;;1.66;69.53
18819;BME280;9537;45.594;9.294;2023-01-28T01:22:24;99668.06;;;1.60;69.37
18819;BME280;9537;45.594;9.294;2023-01-28T01:23:26;99680.25;;;1.60;69.57
18819;BME280;9537;45.594;9.294;2023-01-28T01:24:28;99673.63;;;1.55;69.62
18819;BME280;9537;45.594;9.294;2023-01-28T01:25:33;99678.25;;;1.52;69.58
18819;BME280;9537;45.594;9.294;2023-01-28T01:26:34;99676.09;;;1.57;69.92
18819;BME280;9537;45.594;9.294;2023-01-28T01:27:36;99673.25;;;1.60;70.16
18819;BME280;9537;45.594;9.294;2023-01-28T01:28:39;99672.56;;;1.58;70.30
18819;BME280;9537;45.594;9.294;2023-01-28T01:29:41;99675.88;;;1.60;69.96
18819;BME280;9537;45.594;9.294;2023-01-28T01:30:42;99671.38;;;1.62;69.69
18819;BME280;9537;45.594;9.294;2023-01-28T01:31:44;99678.88;;;1.67;69.58
18819;BME280;9537;45.594;9.294;2023-01-28T01:32:45;99673.28;;;1.71;69.69
18819;BME280;9537;45.594;9.294;2023-01-28T01:33:48;99675.91;;;1.71;69.67
18819;BME280;9537;45.594;9.294;2023-01-28T01:34:49;99668.94;;;1.72;69.33
18819;BME280;9537;45.594;9.294;2023-01-28T01:35:52;99676.28;;;1.78;69.96
18819;BME280;9537;45.594;9.294;2023-01-28T01:36:54;99683.97;;;1.79;69.14
18819;BME280;9537;45.594;9.294;2023-01-28T01:37:56;99679.47;;;1.82;69.35
18819;BME280;9537;45.594;9.294;2023-01-28T01:38:57;99688.34;;;1.79;69.75
18819;BME280;9537;45.594;9.294;2023-01-28T01:39:59;99694.28;;;1.81;69.61
18819;BME280;9537;45.594;9.294;2023-01-28T01:41:02;99683.97;;;1.79;69.70
18819;BME280;9537;45.594;9.294;2023-01-28T01:42:04;99683.59;;;1.73;70.60
18819;BME280;9537;45.594;9.294;2023-01-28T01:43:14;99676.75;;;1.72;70.73
18819;BME280;9537;45.594;9.294;2023-01-28T01:45:59;99677.81;;;1.80;70.57
18819;BME280;9537;45.594;9.294;2023-01-28T01:47:03;99684.09;;;1.78;71.03
18819;BME280;9537;45.594;9.294;2023-01-28T01:48:12;99690.13;;;1.78;70.23
18819;BME280;9537;45.594;9.294;2023-01-28T01:49:18;99683.84;;;1.81;71.08
18819;BME280;9537;45.594;9.294;2023-01-28T01:50:24;99685.75;;;1.79;71.14
18819;BME280;9537;45.594;9.294;2023-01-28T01:51:31;99683.97;;;1.79;70.31
18819;BME280;9537;45.594;9.294;2023-01-28T01:52:34;99683.97;;;1.79;70.87
18819;BME280;9537;45.594;9.294;2023-01-28T01:53:40;99694.28;;;1.81;71.41
18819;BME280;9537;45.594;9.294;2023-01-28T01:54:44;99694.63;;;1.76;71.45
18819;BME280;9537;45.594;9.294;2023-01-28T01:55:49;99694.16;;;1.83;71.33
18819;BME280;9537;45.594;9.294;2023-01-28T01:56:52;99685.75;;;1.79;71.13
18819;BME280;9537;45.594;9.294;2023-01-28T01:57:56;99685.50;;;1.82;70.86
18819;BME280;9537;45.594;9.294;2023-01-28T01:58:59;99693.81;;;1.87;70.87
18819;BME280;9537;45.594;9.294;2023-01-28T02:00:04;99691.22;;;1.87;70.53
18819;BME280;9537;45.594;9.294;2023-01-28T02:01:07;99685.75;;;1.90;70.95
18819;BME280;9537;45.594;9.294;2023-01-28T02:02:10;99682.44;;;1.88;71.00
18819;BME280;9537;45.594;9.294;2023-01-28T02:03:12;99683.41;;;1.87;70.39
18819;BME280;9537;45.594;9.294;2023-01-28T02:04:19;99689.66;;;1.85;70.47
18819;BME280;9537;45.594;9.294;2023-01-28T02:05:22;99690.38;;;1.87;70.58
18819;BME280;9537;45.594;9.294;2023-01-28T02:06:24;99690.38;;;1.87;70.96
18819;BME280;9537;45.594;9.294;2023-01-28T02:07:26;99683.97;;;1.79;70.84
18819;BME280;9537;45.594;9.294;2023-01-28T02:08:28;99679.81;;;1.77;70.62
18819;BME280;9537;45.594;9.294;2023-01-28T02:09:31;99680.19;;;1.72;71.10
18819;BME280;9537;45.594;9.294;2023-01-28T02:10:34;99679.78;;;1.66;71.22
18819;BME280;9537;45.594;9.294;2023-01-28T02:11:35;99682.63;;;1.63;71.90
18819;BME280;9537;45.594;9.294;2023-01-28T02:12:39;99679.44;;;1.59;71.70
18819;BME280;9537;45.594;9.294;2023-01-28T02:13:46;99680.63;;;1.55;71.47
18819;BME280;9537;45.594;9.294;2023-01-28T02:14:54;99680.63;;;1.55;71.87
18819;BME280;9537;45.594;9.294;2023-01-28T02:15:58;99681.22;;;1.58;72.10
18819;BME280;9537;45.594;9.294;2023-01-28T02:17:03;99680.97;;;1.62;72.23
18819;BME280;9537;45.594;9.294;2023-01-28T02:18:04;99680.28;;;1.71;71.47
18819;BME280;9537;45.594;9.294;2023-01-28T02:19:06;99674.81;;;1.63;70.69
18819;BME280;9537;45.594;9.294;2023-01-28T02:20:11;99674.13;;;1.61;71.15
18819;BME280;9537;45.594;9.294;2023-01-28T02:21:30;99679.31;;;1.61;71.35
18819;BME280;9537;45.594;9.294;2023-01-28T02:24:22;99675.53;;;1.65;71.81
18819;BME280;9537;45.594;9.294;2023-01-28T02:25:42;99671.88;;;1.67;71.28
18819;BME280;9537;45.594;9.294;2023-01-28T02:26:56;99679.44;;;1.70;71.38
18819;BME280;9537;45.594;9.294;2023-01-28T02:28:12;99678.50;;;1.71;71.42
18819;BME280;9537;45.594;9.294;2023-01-28T02:29:21;99674.25;;;1.70;71.53
18819;BME280;9537;45.594;9.294;2023-01-28T02:30:29;99671.88;;;1.67;70.97
18819;BME280;9537;45.594;9.294;2023-01-28T02:31:37;99677.09;;;1.67;71.43
18819;BME280;9537;45.594;9.294;2023-01-28T02:32:43;99677.09;;;1.67;71.43
18819;BME280;9537;45.594;9.294;2023-01-28T02:33:51;99676.03;;;1.70;71.50
18819;BME280;9537;45.594;9.294;2023-01-28T02:35:01;99676.94;;;1.69;70.75
18819;BME280;9537;45.594;9.294;2023-01-28T02:36:11;99679.69;;;1.67;70.95
18819;BME280;9537;45.594;9.294;2023-01-28T02:37:20;99679.44;;;1.70;70.44
18819;BME280;9537;45.594;9.294;2023-01-28T02:38:26;99678.28;;;1.63;70.62
18819;BME280;9537;45.594;9.294;2023-01-28T02:39:33;99676.09;;;1.57;70.52
18819;BME280;9537;45.594;9.294;2023-01-28T02:40:37;99679.44;;;1.59;70.29
18819;BME280;9537;45.594;9.294;2023-01-28T02:42:04;99674.19;;;1.48;71.26
18819;BME280;9537;45.594;9.294;2023-01-28T02:43:07;99668.16;;;1.47;71.03
18819;BME280;9537;45.594;9.294;2023-01-28T02:44:10;99679.41;;;1.48;70.74
18819;BME280;9537;45.594;9.294;2023-01-28T02:45:16;99681.06;;;1.49;71.17
18819;BME280;9537;45.594;9.294;2023-01-28T02:46:33;99677.84;;;1.45;70.73
18819;BME280;9537;45.594;9.294;2023-01-28T02:47:52;99676.06;;;1.46;70.77
18819;BME280;9537;45.594;9.294;2023-01-28T02:49:00;99680.34;;;1.47;70.87
18819;BME280;9537;45.594;9.294;2023-01-28T02:50:04;99681.63;;;1.41;70.71
18819;BME280;9537;45.594;9.294;2023-01-28T02:51:15;99681.72;;;1.40;71.01
18819;BME280;9537;45.594;9.294;2023-01-28T02:52:41;99689.44;;;1.41;71.25
18819;BME280;9537;45.594;9.294;2023-01-28T02:54:10;99685.53;;;1.35;71.64
18819;BME280;9537;45.594;9.294;2023-01-28T02:55:19;99683.88;;;1.34;71.31
18819;BME280;9537;45.594;9.294;2023-01-28T02:56:27;99688.22;;;1.34;71.68
18819;BME280;9537;45.594;9.294;2023-01-28T02:57:37;99688.94;;;1.36;72.42
18819;BME280;9537;45.594;9.294;2023-01-28T02:58:47;99689.19;;;1.33;72.47
18819;BME280;9537;45.594;9.294;2023-01-28T02:59:56;99688.22;;;1.34;72.50
18819;BME280;9537;45.594;9.294;2023-01-28T03:01:06;99694.28;;;1.34;72.44
18819;BME280;9537;45.594;9.294;2023-01-28T03:02:14;99692.63;;;1.45;71.79
18819;BME280;9537;45.594;9.294;2023-01-28T03:03:24;99684.38;;;1.51;71.37
18819;BME280;9537;45.594;9.294;2023-01-28T03:04:30;99688.16;;;1.47;71.47
18819;BME280;9537;45.594;9.294;2023-01-28T03:05:35;99692.06;;;1.41;71.07
18819;BME280;9537;45.594;9.294;2023-01-28T03:06:40;99687.91;;;1.39;71.12
18819;BME280;9537;45.594;9.294;2023-01-28T03:07:45;99690.28;;;1.42;71.43
18819;BME280;9537;45.594;9.294;2023-01-28T03:08:51;99692.78;;;1.43;71.16
18819;BME280;9537;45.594;9.294;2023-01-28T03:10:16;99691.44;;;1.38;70.81
18819;BME280;9537;45.594;9.294;2023-01-28T03:11:19;99694.38;;;1.33;70.49
18819;BME280;9537;45.594;9.294;2023-01-28T03:12:40;99697.22;;;1.30;71.31
18819;BME280;9537;45.594;9.294;2023-01-28T03:14:02;99695.75;;;1.26;71.25
18819;BME280;9537;45.594;9.294;2023-01-28T03:15:25;99688.19;;;1.23;71.51
18819;BME280;9537;45.594;9.294;2023-01-28T03:16:49;99694.66;;;1.17;71.36
18819;BME280;9537;45.594;9.294;2023-01-28T03:18:12;99697.00;;;1.09;71.59
18819;BME280;9537;45.594;9.294;2023-01-28T03:19:31;99696.28;;;1.07;71.39
18819;BME280;9537;45.594;9.294;2023-01-28T03:20:56;99697.34;;;1.04;71.72
18819;BME280;9537;45.594;9.294;2023-01-28T03:22:19;99699.41;;;1.12;71.74
18819;BME280;9537;45.594;9.294;2023-01-28T03:23:56;99700.44;;;1.09;71.31
18819;BME280;9537;45.594;9.294;2023-01-28T03:25:19;99699.81;;;1.06;71.19
18819;BME280;9537;45.594;9.294;2023-01-28T03:26:43;99700.16;;;1.01;72.15
18819;BME280;9537;45.594;9.294;2023-01-28T03:28:08;99702.56;;;0.92;72.20
18819;BME280;9537;45.594;9.294;2023-01-28T03:29:30;99704.34;;;0.91;72.45
18819;BME280;9537;45.594;9.294;2023-01-28T03:30:56;99699.06;;;0.93;72.34
18819;BME280;9537;45.594;9.294;2023-01-28T03:32:17;99702.56;;;0.92;73.02
18819;BME280;9537;45.594;9.294;2023-01-28T03:33:38;99705.19;;;0.92;72.59
18819;BME280;9537;45.594;9.294;2023-01-28T03:34:58;99704.47;;;0.89;73.15
18819;BME280;9537;45.594;9.294;2023-01-28T03:36:18;99703.25;;;0.82;72.47
18819;BME280;9537;45.594;9.294;2023-01-28T03:37:37;99707.94;;;0.77;72.89
18819;BME280;9537;45.594;9.294;2023-01-28T03:38:40;99702.25;;;0.72;73.51
18819;BME280;9537;45.594;9.294;2023-01-28T03:39:41;99702.31;;;0.83;72.62
18819;BME280;9537;45.594;9.294;2023-01-28T03:40:48;99704.47;;;0.89;73.14
18819;BME280;9537;45.594;9.294;2023-01-28T03:41:58;99707.78;;;0.92;72.92
18819;BME280;9537;45.594;9.294;2023-01-28T03:43:00;99711.09;;;0.94;72.75
18819;BME280;9537;45.594;9.294;2023-01-28T03:44:01;99700.69;;;0.94;73.05
18819;BME280;9537;45.594;9.294;2023-01-28T03:45:20;99714.75;;;0.91;72.55
18819;BME280;9537;45.594;9.294;2023-01-28T03:46:23;99715.25;;;0.96;73.30
18819;BME280;9537;45.594;9.294;2023-01-28T03:47:27;99712.06;;;0.93;72.91
18819;BME280;9537;45.594;9.294;2023-01-28T03:48:29;99712.06;;;0.93;73.31
18819;BME280;9537;45.594;9.294;2023-01-28T03:49:30;99709.31;;;0.94;73.02
18819;BME280;9537;45.594;9.294;2023-01-28T03:50:32;99710.28;;;0.93;73.35
18819;BME280;9537;45.594;9.294;2023-01-28T03:51:32;99712.06;;;0.93;72.83
18819;BME280;9537;45.594;9.294;2023-01-28T03:52:34;99706.50;;;0.97;72.88
18819;BME280;9537;45.594;9.294;2023-01-28T03:53:36;99714.72;;;1.04;73.07
18819;BME280;9537;45.594;9.294;2023-01-28T03:54:38;99718.66;;;1.09;72.93
18819;BME280;9537;45.594;9.294;2023-01-28T03:55:40;99716.59;;;1.02;72.91
18819;BME280;9537;45.594;9.294;2023-01-28T03:56:41;99712.34;;;1.01;73.14
18819;BME280;9537;45.594;9.294;2023-01-28T03:57:43;99721.69;;;1.03;72.48
18819;BME280;9537;45.594;9.294;2023-01-28T03:58:45;99718.47;;;1.00;72.18
18819;BME280;9537;45.594;9.294;2023-01-28T03:59:53;99718.69;;;0.97;72.52
18819;BME280;9537;45.594;9.294;2023-01-28T04:00:55;99719.84;;;0.93;72.73
18819;BME280;9537;45.594;9.294;2023-01-28T04:01:57;99722.78;;;0.88;72.42
18819;BME280;9537;45.594;9.294;2023-01-28T04:02:59;99726.31;;;0.87;73.32
18819;BME280;9537;45.594;9.294;2023-01-28T04:04:00;99719.56;;;0.84;72.64
18819;BME280;9537;45.594;9.294;2023-01-28T04:05:03;99729.47;;;0.79;72.86
18819;BME280;9537;45.594;9.294;2023-01-28T04:06:12;99723.75;;;0.74;73.04
18819;BME280;9537;45.594;9.294;2023-01-28T04:07:14;99720.53;;;0.71;73.50
18819;BME280;9537;45.594;9.294;2023-01-28T04:08:15;99723.75;;;0.74;73.95
18819;BME280;9537;45.594;9.294;2023-01-28T04:09:17;99715.84;;;0.76;73.64
18819;BME280;9537;45.594;9.294;2023-01-28T04:10:18;99717.03;;;0.72;74.00
18819;BME280;9537;45.594;9.294;2023-01-28T04:11:20;99722.09;;;0.73;73.83
18819;BME280;9537;45.594;9.294;2023-01-28T04:12:21;99721.16;;;0.74;73.74
18819;BME280;9537;45.594;9.294;2023-01-28T04:13:23;99715.84;;;0.76;73.28
18819;BME280;9537;45.594;9.294;2023-01-28T04:14:24;99729.97;;;0.84;73.99
18819;BME280;9537;45.594;9.294;2023-01-28T04:15:26;99726.53;;;0.84;73.84
18819;BME280;9537;45.594;9.294;2023-01-28T04:16:26;99719.88;;;0.80;73.82
18819;BME280;9537;45.594;9.294;2023-01-28T04:17:30;99719.28;;;0.76;74.24
18819;BME280;9537;45.594;9.294;2023-01-28T04:18:31;99717.63;;;0.75;73.82
18819;BME280;9537;45.594;9.294;2023-01-28T04:19:33;99719.50;;;0.73;73.44
18819;BME280;9537;45.594;9.294;2023-01-28T04:20:37;99723.06;;;0.72;73.32
18819;BME280;9537;45.594;9.294;2023-01-28T04:21:39;99722.31;;;0.70;73.90
18819;BME280;9537;45.594;9.294;2023-01-28T04:22:41;99716.16;;;0.71;74.25
18819;BME280;9537;45.594;9.294;2023-01-28T04:23:42;99725.75;;;0.71;73.59
18819;BME280;9537;45.594;9.294;2023-01-28T04:24:43;99725.75;;;0.71;74.12
18819;BME280;9537;45.594;9.294;2023-01-28T04:25:48;99727.19;;;0.75;73.99
18819;BME280;9537;45.594;9.294;2023-01-28T04:26:49;99730.94;;;0.71;73.81
18819;BME280;9537;45.594;9.294;2023-01-28T04:27:51;99727.44;;;0.72;73.85
18819;BME280;9537;45.594;9.294;2023-01-28T04:28:52;99724.81;;;0.72;73.92
18819;BME280;9537;45.594;9.294;2023-01-28T04:29:54;99736.53;;;0.77;73.72
18819;BME280;9537;45.594;9.294;2023-01-28T04:30:55;99730.19;;;0.81;74.43
18819;BME280;9537;45.594;9.294;2023-01-28T04:31:57;99731.75;;;0.84;73.90
18819;BME280;9537;45.594;9.294;2023-01-28T04:32:59;99734.94;;;0.87;73.33
18819;BME280;9537;45.594;9.294;2023-01-28T04:34:01;99733.31;;;0.86;73.87
18819;BME280;9537;45.594;9.294;2023-01-28T04:35:03;99737.56;;;0.87;74.24
18819;BME280;9537;45.594;9.294;2023-01-28T04:36:05;99744.63;;;0.85;73.82
18819;BME280;9537;45.594;9.294;2023-01-28T04:37:06;99739.03;;;0.79;73.71
18819;BME280;9537;45.594;9.294;2023-01-28T04:38:08;99737.88;;;0.83;74.15
18819;BME280;9537;45.594;9.294;2023-01-28T04:39:10;99738.00;;;0.81;73.98
18819;BME280;9537;45.594;9.294;2023-01-28T04:40:12;99743.63;;;0.75;74.11
18819;BME280;9537;45.594;9.294;2023-01-28T04:41:13;99741.53;;;0.80;73.92
18819;BME280;9537;45.594;9.294;2023-01-28T04:42:15;99746.00;;;0.78;74.54
18819;BME280;9537;45.594;9.294;2023-01-28T04:43:16;99741.94;;;0.74;74.50
18819;BME280;9537;45.594;9.294;2023-01-28T04:44:19;99752.44;;;0.85;74.49
18819;BME280;9537;45.594;9.294;2023-01-28T04:45:20;99755.44;;;0.92;73.74
18819;BME280;9537;45.594;9.294;2023-01-28T04:46:22;99746.19;;;0.88;73.90
18819;BME280;9537;45.594;9.294;2023-01-28T04:47:23;99760.97;;;0.87;73.45
18819;BME280;9537;45.594;9.294;2023-01-28T04:48:27;99752.44;;;0.85;73.34
18819;BME280;9537;45.594;9.294;2023-01-28T04:49:30;99755.16;;;0.84;74.16
18819;BME280;9537;45.594;9.294;2023-01-28T04:50:32;99759.41;;;0.85;73.53
18819;BME280;9537;45.594;9.294;2023-01-28T04:51:33;99754.19;;;0.85;74.20
18819;BME280;9537;45.594;9.294;2023-01-28T04:52:35;99753.16;;;0.87;73.90
18819;BME280;9537;45.594;9.294;2023-01-28T04:53:36;99757.19;;;0.92;74.12
18819;BME280;9537;45.594;9.294;2023-01-28T04:54:37;99763.69;;;0.86;73.36
18819;BME280;9537;45.594;9.294;2023-01-28T04:55:38;99763.88;;;0.83;73.64
18819;BME280;9537;45.594;9.294;2023-01-28T04:56:40;99766.69;;;0.80;74.34
18819;BME280;9537;45.594;9.294;2023-01-28T04:57:41;99763.16;;;0.81;74.65
18819;BME280;9537;45.594;9.294;2023-01-28T04:58:45;99775.94;;;0.84;73.82
18819;BME280;9537;45.594;9.294;2023-01-28T04:59:47;99768.03;;;0.85;74.36
18819;BME280;9537;45.594;9.294;2023-01-28T05:00:53;99771.56;;;0.84;74.64
18819;BME280;9537;45.594;9.294;2023-01-28T05:01:55;99769.81;;;0.85;74.67
18819;BME280;9537;45.594;9.294;2023-01-28T05:02:56;99768.16;;;0.84;74.21
18819;BME280;9537;45.594;9.294;2023-01-28T05:04:00;99777.59;;;0.85;73.71
18819;BME280;9537;45.594;9.294;2023-01-28T05:05:05;99771.06;;;0.79;73.97
18819;BME280;9537;45.594;9.294;2023-01-28T05:06:08;99780.63;;;0.79;73.90
18819;BME280;9537;45.594;9.294;2023-01-28T05:07:12;99778.13;;;0.77;74.82
18819;BME280;9537;45.594;9.294;2023-01-28T05:08:13;99779.47;;;0.83;74.08
18819;BME280;9537;45.594;9.294;2023-01-28T05:09:15;99771.66;;;0.83;73.75
18819;BME280;9537;45.594;9.294;2023-01-28T05:10:16;99773.97;;;0.87;74.30
18819;BME280;9537;45.594;9.294;2023-01-28T05:11:18;99783.84;;;0.82;74.06
18819;BME280;9537;45.594;9.294;2023-01-28T05:12:19;99780.84;;;0.76;74.01
18819;BME280;9537;45.594;9.294;2023-01-28T05:13:21;99779.50;;;0.70;74.63
18819;BME280;9537;45.594;9.294;2023-01-28T05:14:22;99782.09;;;0.70;74.80
18819;BME280;9537;45.594;9.294;2023-01-28T05:15:24;99776.19;;;0.68;74.67
18819;BME280;9537;45.594;9.294;2023-01-28T05:16:25;99772.25;;;0.62;75.17
18819;BME280;9537;45.594;9.294;2023-01-28T05:17:27;99775.06;;;0.59;74.84
18819;BME280;9537;45.594;9.294;2023-01-28T05:18:28;99776.53;;;0.63;75.32
18819;BME280;9537;45.594;9.294;2023-01-28T05:19:32;99775.66;;;0.63;74.08
18819;BME280;9537;45.594;9.294;2023-01-28T05:20:33;99775.47;;;0.66;74.67
18819;BME280;9537;45.594;9.294;2023-01-28T05:21:35;99774.63;;;0.65;74.31
18819;BME280;9537;45.594;9.294;2023-01-28T05:22:36;99777.22;;;0.65;74.94
18819;BME280;9537;45.594;9.294;2023-01-28T05:23:38;99780.69;;;0.53;74.47
18819;BME280;9537;45.594;9.294;2023-01-28T05:24:40;99785.56;;;0.58;74.84
18819;BME280;9537;45.594;9.294;2023-01-28T05:25:41;99788.16;;;0.58;74.79
18819;BME280;9537;45.594;9.294;2023-01-28T05:26:44;99784.63;;;0.59;75.57
18819;BME280;9537;45.594;9.294;2023-01-28T05:27:49;99780.47;;;0.56;74.76
18819;BME280;9537;45.594;9.294;2023-01-28T05:28:51;99791.81;;;0.55;74.86
18819;BME280;9537;45.594;9.294;2023-01-28T05:29:52;99790.78;;;0.58;75.49
18819;BME280;9537;45.594;9.294;2023-01-28T05:30:54;99799.78;;;0.65;75.38
18819;BME280;9537;45.594;9.294;2023-01-28T05:31:55;99789.50;;;0.63;74.85
18819;BME280;9537;45.594;9.294;2023-01-28T05:32:57;99791.47;;;0.60;75.03
18819;BME280;9537;45.594;9.294;2023-01-28T05:33:58;99788.88;;;0.60;75.75
18819;BME280;9537;45.594;9.294;2023-01-28T05:35:01;99793.38;;;0.58;75.48
18819;BME280;9537;45.594;9.294;2023-01-28T05:36:03;99794.06;;;0.60;75.84
18819;BME280;9537;45.594;9.294;2023-01-28T05:37:05;99796.44;;;0.63;75.89
18819;BME280;9537;45.594;9.294;2023-01-28T05:38:06;99808.53;;;0.64;75.58
18819;BME280;9537;45.594;9.294;2023-01-28T05:39:08;99797.94;;;0.67;75.24
18819;BME280;9537;45.594;9.294;2023-01-28T05:40:10;99801.03;;;0.72;74.82
18819;BME280;9537;45.594;9.294;2023-01-28T05:41:12;99809.34;;;0.77;75.09
18819;BME280;9537;45.594;9.294;2023-01-28T05:42:15;99807.47;;;0.79;75.38
18819;BME280;9537;45.594;9.294;2023-01-28T05:43:18;99812.66;;;0.79;75.40
18819;BME280;9537;45.594;9.294;2023-01-28T05:44:19;99814.34;;;0.80;74.89
18819;BME280;9537;45.594;9.294;2023-01-28T05:45:21;99816.00;;;0.81;74.71
18819;BME280;9537;45.594;9.294;2023-01-28T05:46:22;99805.47;;;0.83;75.01
18819;BME280;9537;45.594;9.294;2023-01-28T05:47:24;99809.16;;;0.80;75.38
18819;BME280;9537;45.594;9.294;2023-01-28T05:48:25;99804.56;;;0.84;75.64
18819;BME280;9537;45.594;9.294;2023-01-28T05:49:27;99809.16;;;0.80;74.62
18819;BME280;9537;45.594;9.294;2023-01-28T05:50:30;99802.47;;;0.76;75.19
18819;BME280;9537;45.594;9.294;2023-01-28T05:51:32;99809.16;;;0.67;75.72
18819;BME280;9537;45.594;9.294;2023-01-28T05:52:33;99814.66;;;0.63;75.49
18819;BME280;9537;45.594;9.294;2023-01-28T05:53:35;99813.34;;;0.57;76.10
18819;BME280;9537;45.594;9.294;2023-01-28T05:54:36;99808.00;;;0.59;76.27
18819;BME280;9537;45.594;9.294;2023-01-28T05:55:38;99805.41;;;0.59;76.39